createdAt,value
2023-05-02T00:02:17.507Z,12.27
2023-05-02T00:04:44.908Z,12.40
2023-05-02T00:07:11.949Z,10.33
2023-05-02T00:09:38.884Z,14.40
2023-05-02T00:12:05.836Z,10.97
2023-05-02T00:14:32.970Z,12.80
2023-05-02T00:16:59.880Z,9.97
2023-05-02T00:19:26.687Z,14.60
2023-05-02T00:21:53.449Z,12.77
2023-05-02T00:24:20.168Z,12.40
2023-05-02T00:26:46.983Z,13.20
2023-05-02T00:29:13.796Z,12.13
2023-05-02T00:31:43.588Z,11.73
2023-05-02T00:34:10.495Z,13.00
2023-05-02T00:36:37.235Z,12.10
2023-05-02T00:39:04.770Z,13.80
2023-05-02T00:41:31.603Z,11.80
2023-05-02T00:43:58.604Z,15.03
2023-05-02T00:46:25.679Z,15.30
2023-05-02T00:48:52.885Z,15.37
2023-05-02T00:51:19.761Z,14.70
2023-05-02T00:53:46.617Z,15.70
2023-05-02T00:56:13.376Z,30.00
2023-05-02T00:58:43.692Z,23.13
2023-05-02T01:01:53.496Z,20.73
2023-05-02T01:04:39.874Z,24.77
2023-05-02T01:07:19.050Z,29.20
2023-05-02T01:09:54.683Z,25.97
2023-05-02T01:12:45.775Z,28.37
2023-05-02T01:15:18.427Z,30.50
2023-05-02T01:17:47.149Z,35.13
2023-05-02T01:20:20.051Z,31.70
2023-05-02T01:22:48.159Z,35.43
2023-05-02T01:25:33.211Z,35.77
2023-05-02T01:28:32.820Z,36.83
2023-05-02T01:31:01.522Z,30.17
2023-05-02T01:33:30.527Z,33.30
2023-05-02T01:35:57.942Z,32.43
2023-05-02T01:38:25.440Z,40.83
2023-05-02T01:40:52.885Z,35.90
2023-05-02T01:43:21.210Z,39.67
2023-05-02T01:45:50.870Z,43.27
2023-05-02T01:48:19.199Z,37.80
2023-05-02T01:50:47.666Z,45.97
2023-05-02T01:53:15.388Z,42.10
2023-05-02T01:55:45.246Z,41.97
2023-05-02T01:58:14.111Z,45.40
2023-05-02T02:00:42.282Z,51.43
2023-05-02T02:03:10.507Z,47.93
2023-05-02T02:05:39.814Z,38.40
2023-05-02T02:08:06.849Z,37.50
2023-05-02T02:10:40.365Z,33.93
2023-05-02T02:13:15.433Z,27.33
2023-05-02T02:15:45.272Z,27.13
2023-05-02T02:18:23.079Z,32.37
2023-05-02T02:20:52.137Z,29.50
2023-05-02T02:23:20.954Z,33.43
2023-05-02T02:25:50.551Z,37.03
2023-05-02T02:28:17.357Z,37.33
2023-05-02T02:30:44.293Z,37.40
2023-05-02T02:33:11.083Z,34.40
2023-05-02T02:35:42.199Z,34.13
2023-05-02T02:38:32.704Z,38.20
2023-05-02T02:41:19.199Z,37.60
2023-05-02T02:43:49.327Z,34.83
2023-05-02T02:46:46.474Z,36.40
2023-05-02T02:49:27.112Z,40.20
2023-05-02T02:52:02.721Z,39.70
2023-05-02T02:54:39.996Z,37.20
2023-05-02T02:57:10.830Z,40.10
2023-05-02T02:59:42.181Z,35.80
2023-05-02T03:02:12.928Z,37.87
2023-05-02T03:04:44.884Z,41.67
2023-05-02T03:07:11.883Z,36.00
2023-05-02T03:09:46.589Z,37.03
2023-05-02T03:12:13.916Z,36.63
2023-05-02T03:14:41.085Z,40.30
2023-05-02T03:17:10.707Z,36.10
2023-05-02T03:19:37.539Z,35.40
2023-05-02T03:22:05.133Z,35.37
2023-05-02T03:24:31.848Z,37.57
2023-05-02T03:26:59.257Z,34.93
2023-05-02T03:29:26.531Z,39.13
2023-05-02T03:31:53.309Z,36.50
2023-05-02T03:34:22.200Z,38.00
2023-05-02T03:36:49.230Z,39.53
2023-05-02T03:39:16.019Z,41.13
2023-05-02T03:41:43.784Z,44.40
2023-05-02T03:44:10.696Z,44.03
2023-05-02T03:46:37.509Z,42.47
2023-05-02T03:49:04.330Z,46.53
2023-05-02T03:51:31.991Z,42.73
2023-05-02T03:54:01.806Z,46.90
2023-05-02T03:56:28.518Z,40.50
2023-05-02T03:58:55.236Z,43.47
2023-05-02T04:01:21.932Z,48.30
2023-05-02T04:03:48.864Z,42.97
2023-05-02T04:06:15.689Z,38.67
2023-05-02T04:08:42.568Z,45.33
2023-05-02T04:11:09.667Z,39.60
2023-05-02T04:13:36.341Z,43.63
2023-05-02T04:16:04.544Z,46.93
2023-05-02T04:18:31.321Z,45.87
2023-05-02T04:20:58.020Z,42.63
2023-05-02T04:23:24.829Z,45.70
2023-05-02T04:25:56.499Z,47.53
2023-05-02T04:28:24.023Z,41.53
2023-05-02T04:30:51.598Z,42.33
2023-05-02T04:33:19.174Z,44.33
2023-05-02T04:35:46.117Z,39.17
2023-05-02T04:38:12.935Z,39.60
2023-05-02T04:40:40.007Z,32.53
2023-05-02T04:43:07.483Z,32.77
2023-05-02T04:45:37.653Z,29.60
2023-05-02T04:48:05.038Z,30.90
2023-05-02T04:50:32.348Z,27.13
2023-05-02T04:52:59.543Z,21.70
2023-05-02T04:55:26.561Z,22.67
2023-05-02T04:57:53.299Z,21.17
2023-05-02T05:00:20.538Z,24.33
2023-05-02T05:02:47.566Z,20.43
2023-05-02T05:05:14.520Z,18.20
2023-05-02T05:07:41.333Z,16.83
2023-05-02T05:10:08.602Z,17.23
2023-05-02T05:12:35.284Z,17.13
2023-05-02T05:15:02.093Z,14.43
2023-05-02T05:17:28.808Z,13.20
2023-05-02T05:19:55.844Z,12.57
2023-05-02T05:22:22.976Z,9.63
2023-05-02T05:24:53.749Z,8.53
2023-05-02T05:27:20.933Z,7.67
2023-05-02T05:29:48.331Z,10.20
2023-05-02T05:32:15.196Z,11.97
2023-05-02T05:34:42.004Z,13.00
2023-05-02T05:37:08.859Z,11.47
2023-05-02T05:39:35.662Z,17.53
2023-05-02T05:42:02.650Z,13.40
2023-05-02T05:44:29.450Z,11.50
2023-05-02T05:46:56.396Z,17.33
2023-05-02T05:49:24.257Z,14.90
2023-05-02T05:51:51.082Z,18.40
2023-05-02T05:54:18.667Z,16.57
2023-05-02T05:56:45.942Z,18.13
2023-05-02T05:59:13.003Z,20.27
2023-05-02T06:01:40.447Z,22.20
2023-05-02T06:04:08.567Z,27.93
2023-05-02T06:06:35.462Z,19.70
2023-05-02T06:09:02.426Z,20.23
2023-05-02T06:11:29.209Z,18.07
2023-05-02T06:13:56.012Z,17.37
2023-05-02T06:16:23.279Z,20.53
2023-05-02T06:18:52.766Z,18.93
2023-05-02T06:21:19.589Z,22.07
2023-05-02T06:23:46.887Z,12.70
2023-05-02T06:26:13.756Z,12.77
2023-05-02T06:28:40.569Z,13.07
2023-05-02T06:31:07.368Z,23.43
2023-05-02T06:33:34.700Z,12.83
2023-05-02T06:36:02.192Z,12.37
2023-05-02T06:38:29.521Z,11.13
2023-05-02T06:40:56.331Z,22.07
2023-05-02T06:43:23.179Z,22.30
2023-05-02T06:45:54.486Z,20.50
2023-05-02T06:48:21.767Z,17.30
2023-05-02T06:50:49.428Z,14.13
2023-05-02T06:53:16.398Z,18.43
2023-05-02T06:55:44.296Z,18.60
2023-05-02T06:58:11.241Z,21.17
2023-05-02T07:00:38.046Z,24.80
2023-05-02T07:03:04.946Z,21.97
2023-05-02T07:05:31.755Z,18.40
2023-05-02T07:07:58.730Z,20.97
2023-05-02T07:10:25.611Z,18.03
2023-05-02T07:12:52.437Z,18.37
2023-05-02T07:15:19.334Z,18.97
2023-05-02T07:17:47.774Z,25.07
2023-05-02T07:20:15.646Z,20.60
2023-05-02T07:22:43.049Z,23.33
2023-05-02T07:25:10.085Z,20.13
2023-05-02T07:27:36.844Z,21.37
2023-05-02T07:30:04.024Z,14.43
2023-05-02T07:32:31.469Z,27.63
2023-05-02T07:34:58.368Z,27.87
2023-05-02T07:37:25.168Z,16.43
2023-05-02T07:39:51.941Z,19.17
2023-05-02T07:42:19.326Z,26.30
2023-05-02T07:44:46.095Z,16.27
2023-05-02T07:47:12.818Z,31.37
2023-05-02T07:49:39.524Z,20.93
2023-05-02T07:52:06.302Z,23.67
2023-05-02T07:54:33.040Z,19.53
2023-05-02T07:57:02.933Z,22.83
2023-05-02T07:59:32.674Z,25.30
2023-05-02T08:01:59.543Z,29.10
2023-05-02T08:04:26.941Z,22.53
2023-05-02T08:06:55.456Z,24.27
2023-05-02T08:09:22.435Z,25.30
2023-05-02T08:11:49.229Z,22.73
2023-05-02T08:14:16.614Z,26.50
2023-05-02T08:16:45.579Z,24.33
2023-05-02T08:19:13.433Z,32.40
2023-05-02T08:21:40.203Z,25.40
2023-05-02T08:24:07.011Z,33.10
2023-05-02T08:26:33.852Z,19.90
2023-05-02T08:29:01.230Z,22.20
2023-05-02T08:31:28.171Z,30.23
2023-05-02T08:33:54.957Z,30.70
2023-05-02T08:36:22.117Z,21.63
2023-05-02T08:38:49.565Z,24.97
2023-05-02T08:41:18.487Z,23.77
2023-05-02T08:43:46.616Z,17.60
2023-05-02T08:46:16.063Z,17.00
2023-05-02T08:48:44.963Z,23.87
2023-05-02T08:51:14.041Z,21.00
2023-05-02T08:53:41.797Z,20.10
2023-05-02T08:56:10.547Z,27.80
2023-05-02T08:58:41.434Z,19.73
2023-05-02T09:01:16.736Z,19.10
2023-05-02T09:03:45.006Z,16.23
2023-05-02T09:06:13.012Z,14.50
2023-05-02T09:08:41.781Z,19.30
2023-05-02T09:11:10.541Z,18.40
2023-05-02T09:13:45.565Z,12.60
2023-05-02T09:16:15.129Z,10.07
2023-05-02T09:18:45.703Z,10.93
2023-05-02T09:21:14.198Z,15.80
2023-05-02T09:23:46.191Z,11.53
2023-05-02T09:26:22.887Z,11.70
2023-05-02T09:28:51.764Z,10.43
2023-05-02T09:31:43.322Z,10.70
2023-05-02T09:34:18.531Z,12.47
2023-05-02T09:36:47.217Z,14.53
2023-05-02T09:39:22.755Z,18.30
2023-05-02T09:41:52.760Z,24.53
2023-05-02T09:44:22.120Z,21.20
2023-05-02T09:46:50.739Z,21.87
2023-05-02T09:49:21.133Z,17.27
2023-05-02T09:51:48.494Z,14.57
2023-05-02T09:54:35.988Z,13.03
2023-05-02T09:57:03.739Z,18.57
2023-05-02T09:59:30.820Z,14.27
2023-05-02T10:02:02.522Z,18.83
2023-05-02T10:04:31.611Z,20.50
2023-05-02T10:06:59.420Z,28.47
2023-05-02T10:09:27.618Z,20.17
2023-05-02T10:11:55.516Z,27.47
2023-05-02T10:14:27.059Z,18.40
2023-05-02T10:17:21.459Z,9.60
2023-05-02T10:19:59.236Z,15.63
2023-05-02T10:22:26.568Z,14.63
2023-05-02T10:24:54.157Z,22.33
2023-05-02T10:27:22.014Z,18.10
2023-05-02T10:29:51.279Z,15.33
2023-05-02T10:32:18.714Z,17.00
2023-05-02T10:34:47.652Z,33.00
2023-05-02T10:37:15.812Z,22.87
2023-05-02T10:39:42.597Z,16.70
2023-05-02T10:42:10.621Z,14.63
2023-05-02T10:44:39.713Z,21.27
2023-05-02T10:47:18.997Z,17.10
2023-05-02T10:49:57.168Z,15.07
2023-05-02T10:52:29.762Z,17.40
2023-05-02T10:55:21.193Z,10.40
2023-05-02T10:58:06.573Z,11.43
2023-05-02T11:00:34.660Z,12.93
2023-05-02T11:03:02.134Z,14.67
2023-05-02T11:05:29.409Z,14.00
2023-05-02T11:08:20.172Z,13.23
2023-05-02T11:10:47.380Z,17.93
2023-05-02T11:13:14.207Z,13.20
2023-05-02T11:15:41.032Z,12.50
2023-05-02T11:18:12.698Z,32.07
2023-05-02T11:20:41.579Z,14.60
2023-05-02T11:23:18.233Z,9.90
2023-05-02T11:25:46.853Z,10.47
2023-05-02T11:28:50.478Z,12.27
2023-05-02T11:31:29.392Z,8.50
2023-05-02T11:34:03.494Z,9.03
2023-05-02T11:36:32.230Z,12.47
2023-05-02T11:39:03.358Z,12.73
2023-05-02T11:41:43.021Z,8.70
2023-05-02T11:44:10.276Z,12.73
2023-05-02T11:46:38.050Z,12.87
2023-05-02T11:49:06.998Z,16.93
2023-05-02T11:51:36.256Z,11.63
2023-05-02T11:54:03.976Z,11.77
2023-05-02T11:56:31.475Z,14.17
2023-05-02T11:59:03.158Z,13.20
2023-05-02T12:01:30.807Z,14.80
2023-05-02T12:04:04.609Z,10.90
2023-05-02T12:06:31.454Z,12.00
2023-05-02T12:09:09.138Z,10.13
2023-05-02T12:11:38.198Z,21.07
2023-05-02T12:14:06.441Z,9.80
2023-05-02T12:16:33.504Z,18.10
2023-05-02T12:19:01.189Z,16.43
2023-05-02T12:21:30.102Z,14.50
2023-05-02T12:23:57.541Z,13.77
2023-05-02T12:26:29.227Z,10.80
2023-05-02T12:28:57.188Z,12.33
2023-05-02T12:31:24.976Z,11.03
2023-05-02T12:33:55.230Z,12.80
2023-05-02T12:36:22.349Z,11.73
2023-05-02T12:38:52.395Z,14.90
2023-05-02T12:41:30.719Z,11.10
2023-05-02T12:43:58.663Z,12.03
2023-05-02T12:46:27.111Z,17.10
2023-05-02T12:49:10.795Z,12.33
2023-05-02T12:51:39.296Z,12.67
2023-05-02T12:54:07.144Z,18.23
2023-05-02T12:56:41.063Z,14.13
2023-05-02T12:59:08.256Z,14.40
2023-05-02T13:01:35.766Z,19.43
2023-05-02T13:04:03.091Z,15.13
2023-05-02T13:06:30.259Z,11.10
2023-05-02T13:08:57.178Z,13.17
2023-05-02T13:11:24.531Z,17.13
2023-05-02T13:13:51.365Z,12.67
2023-05-02T13:16:18.456Z,14.57
2023-05-02T13:18:47.656Z,13.17
2023-05-02T13:21:14.825Z,12.20
2023-05-02T13:23:44.189Z,23.93
2023-05-02T13:26:11.578Z,11.10
2023-05-02T13:28:38.415Z,12.37
2023-05-02T13:31:05.342Z,15.33
2023-05-02T13:33:32.139Z,16.87
2023-05-02T13:35:59.159Z,11.57
2023-05-02T13:38:26.695Z,18.10
2023-05-02T13:40:54.383Z,10.50
2023-05-02T13:43:21.605Z,14.13
2023-05-02T13:45:54.756Z,13.70
2023-05-02T13:48:21.754Z,18.87
2023-05-02T13:50:48.550Z,17.30
2023-05-02T13:53:16.228Z,12.83
2023-05-02T13:55:43.510Z,12.80
2023-05-02T13:58:19.665Z,14.40
2023-05-02T14:00:47.294Z,13.40
2023-05-02T14:03:14.571Z,12.73
2023-05-02T14:05:43.711Z,11.63
2023-05-02T14:08:18.130Z,12.17
2023-05-02T14:10:45.174Z,10.20
2023-05-02T14:13:12.326Z,18.87
2023-05-02T14:15:39.532Z,12.57
2023-05-02T14:18:06.354Z,12.60
2023-05-02T14:20:39.093Z,13.40
2023-05-02T14:23:18.342Z,11.70
2023-05-02T14:25:57.467Z,9.47
2023-05-02T14:28:33.370Z,13.43
2023-05-02T14:31:14.119Z,10.37
2023-05-02T14:33:41.022Z,9.17
2023-05-02T14:36:08.283Z,11.27
2023-05-02T14:38:43.958Z,12.30
2023-05-02T14:41:21.539Z,10.93
2023-05-02T14:44:01.030Z,16.93
2023-05-02T14:46:37.250Z,11.03
2023-05-02T14:49:25.303Z,9.73
2023-05-02T14:51:52.933Z,16.67
2023-05-02T14:54:31.812Z,15.43
2023-05-02T14:57:17.472Z,8.60
2023-05-02T15:02:25.236Z,12.17
2023-05-02T15:05:01.505Z,13.90
2023-05-02T15:07:28.769Z,9.13
2023-05-02T15:09:55.692Z,9.70
2023-05-02T15:12:31.335Z,16.77
2023-05-02T15:15:11.283Z,11.00
2023-05-02T15:17:47.656Z,8.60
2023-05-02T15:20:23.417Z,9.63
2023-05-02T15:23:03.614Z,6.70
2023-05-02T15:25:31.132Z,9.77
2023-05-02T15:27:57.999Z,8.87
2023-05-02T15:30:25.359Z,10.43
2023-05-02T15:32:52.136Z,16.50
2023-05-02T15:35:19.042Z,13.33
2023-05-02T15:37:55.636Z,10.73
2023-05-02T15:40:22.397Z,10.27
2023-05-02T15:42:49.163Z,8.50
2023-05-02T15:45:25.080Z,9.27
2023-05-02T15:47:52.266Z,8.43
2023-05-02T15:50:28.558Z,11.10
2023-05-02T15:52:55.691Z,6.87
2023-05-02T15:55:32.338Z,7.73
2023-05-02T15:57:59.140Z,11.40
2023-05-02T16:00:26.707Z,10.90
2023-05-02T16:03:03.947Z,5.10
2023-05-02T16:05:40.720Z,12.13
2023-05-02T16:08:07.556Z,9.80
2023-05-02T16:10:36.572Z,5.80
2023-05-02T16:13:03.686Z,11.20
2023-05-02T16:15:30.700Z,14.20
2023-05-02T16:18:03.848Z,6.90
2023-05-02T16:20:32.487Z,7.53
2023-05-02T16:23:00.019Z,9.70
2023-05-02T16:25:27.098Z,8.23
2023-05-02T16:27:53.881Z,5.33
2023-05-02T16:30:28.216Z,11.73
2023-05-02T16:32:55.297Z,9.60
2023-05-02T16:35:22.533Z,11.83
2023-05-02T16:37:49.512Z,11.80
2023-05-02T16:40:27.496Z,12.20
2023-05-02T16:43:04.852Z,9.10
2023-05-02T16:45:40.938Z,6.93
2023-05-02T16:51:01.645Z,8.73
2023-05-02T16:53:35.886Z,7.63
2023-05-02T16:56:27.944Z,11.60
2023-05-02T16:58:55.490Z,7.93
2023-05-02T17:01:23.610Z,9.00
2023-05-02T17:03:53.818Z,11.40
2023-05-02T17:06:32.736Z,6.43
2023-05-02T17:09:09.731Z,10.00
2023-05-02T17:11:48.537Z,16.03
2023-05-02T17:14:15.772Z,17.10
2023-05-02T17:16:42.945Z,18.70
2023-05-02T17:19:09.761Z,18.93
2023-05-02T17:21:37.417Z,13.23
2023-05-02T17:24:04.428Z,6.00
2023-05-02T17:26:31.697Z,18.90
2023-05-02T17:28:58.816Z,6.40
2023-05-02T17:31:32.349Z,6.43
2023-05-02T17:34:09.092Z,12.90
2023-05-02T17:36:36.434Z,8.57
2023-05-02T17:39:06.408Z,7.77
2023-05-02T17:41:36.422Z,8.13
2023-05-02T17:44:09.800Z,7.63
2023-05-02T17:46:37.691Z,6.63
2023-05-02T17:49:05.105Z,9.63
2023-05-02T17:51:33.820Z,11.33
2023-05-02T17:54:03.863Z,6.80
2023-05-02T17:56:44.042Z,10.33
2023-05-02T17:59:20.690Z,19.23
2023-05-02T18:01:57.145Z,7.57
2023-05-02T18:04:45.350Z,10.67
2023-05-02T18:07:15.056Z,6.40
2023-05-02T18:09:41.908Z,7.60
2023-05-02T18:12:17.939Z,5.77
2023-05-02T18:14:45.057Z,11.27
2023-05-02T18:17:24.550Z,11.43
2023-05-02T18:19:51.412Z,8.90
2023-05-02T18:22:21.309Z,7.23
2023-05-02T18:25:04.461Z,9.40
2023-05-02T18:27:40.397Z,8.63
2023-05-02T18:30:08.133Z,8.40
2023-05-02T18:32:35.239Z,7.27
2023-05-02T18:35:04.012Z,8.67
2023-05-02T18:37:31.670Z,4.40
2023-05-02T18:39:59.419Z,8.93
2023-05-02T18:42:32.544Z,8.27
2023-05-02T18:45:11.485Z,16.57
2023-05-02T18:47:47.783Z,8.43
2023-05-02T18:50:14.993Z,8.53
2023-05-02T18:52:41.754Z,8.27
2023-05-02T18:55:08.839Z,13.00
2023-05-02T18:57:35.939Z,11.80
2023-05-02T19:00:06.433Z,17.83
2023-05-02T19:02:33.706Z,15.93
2023-05-02T19:05:02.204Z,12.00
2023-05-02T19:07:29.340Z,12.77
2023-05-02T19:09:56.724Z,14.50
2023-05-02T19:12:23.622Z,14.40
2023-05-02T19:14:50.795Z,12.83
2023-05-02T19:17:17.754Z,15.00
2023-05-02T19:19:48.009Z,7.40
2023-05-02T19:22:15.364Z,8.97
2023-05-02T19:24:42.249Z,4.97
2023-05-02T19:27:09.867Z,6.10
2023-05-02T19:29:36.931Z,6.90
2023-05-02T19:32:03.833Z,6.30
2023-05-02T19:34:31.952Z,8.63
2023-05-02T19:36:58.741Z,10.27
2023-05-02T19:39:25.506Z,8.93
2023-05-02T19:41:52.702Z,8.43
2023-05-02T19:44:21.837Z,11.03
2023-05-02T19:46:48.806Z,11.00
2023-05-02T19:49:16.396Z,7.43
2023-05-02T19:51:43.986Z,8.13
2023-05-02T19:54:12.004Z,15.03
2023-05-02T19:56:38.828Z,12.93
2023-05-02T19:59:05.786Z,8.43
2023-05-02T20:01:33.175Z,7.47
2023-05-02T20:04:01.373Z,10.80
2023-05-02T20:06:28.606Z,6.30
2023-05-02T20:08:55.935Z,7.33
2023-05-02T20:11:23.138Z,7.03
2023-05-02T20:13:49.943Z,6.70
2023-05-02T20:16:16.834Z,9.37
2023-05-02T20:18:43.655Z,6.80
2023-05-02T20:21:10.442Z,7.27
2023-05-02T20:23:37.264Z,6.63
2023-05-02T20:26:04.222Z,7.20
2023-05-02T20:28:31.399Z,6.27
2023-05-02T20:30:58.987Z,8.83
2023-05-02T20:33:33.555Z,10.17
2023-05-02T20:36:08.425Z,10.57
2023-05-02T20:38:35.245Z,7.70
2023-05-02T20:41:08.390Z,8.13
2023-05-02T20:43:35.402Z,8.43
2023-05-02T20:46:12.704Z,5.00
2023-05-02T20:48:39.631Z,8.07
2023-05-02T20:51:06.746Z,8.33
2023-05-02T20:53:33.534Z,7.70
2023-05-02T20:56:00.436Z,10.90
2023-05-02T20:58:27.299Z,6.70
2023-05-02T21:00:54.179Z,10.97
2023-05-02T21:03:21.311Z,17.43
2023-05-02T21:05:55.999Z,11.80
2023-05-02T21:08:23.163Z,16.60
2023-05-02T21:10:50.038Z,12.73
2023-05-02T21:13:17.131Z,19.03
2023-05-02T21:15:43.934Z,18.93
2023-05-02T21:18:10.805Z,22.73
2023-05-02T21:20:41.411Z,25.90
2023-05-02T21:23:11.059Z,16.83
2023-05-02T21:25:38.421Z,16.00
2023-05-02T21:28:06.051Z,19.70
2023-05-02T21:30:33.082Z,17.50
2023-05-02T21:32:59.947Z,18.30
2023-05-02T21:35:27.398Z,23.37
2023-05-02T21:37:54.165Z,12.10
2023-05-02T21:40:20.937Z,20.17
2023-05-02T21:42:47.653Z,12.37
2023-05-02T21:45:14.895Z,11.23
2023-05-02T21:47:41.724Z,8.33
2023-05-02T21:50:08.804Z,7.17
2023-05-02T21:52:36.131Z,9.40
2023-05-02T21:55:03.189Z,9.17
2023-05-02T21:57:29.942Z,8.73
2023-05-02T21:59:56.608Z,7.10
2023-05-02T22:02:23.814Z,10.93
2023-05-02T22:04:50.844Z,5.63
2023-05-02T22:07:17.659Z,9.93
2023-05-02T22:09:44.486Z,8.53
2023-05-02T22:12:11.752Z,9.37
2023-05-02T22:14:45.390Z,14.47
2023-05-02T22:17:13.546Z,11.60
2023-05-02T22:19:40.539Z,12.40
2023-05-02T22:22:07.630Z,12.23
2023-05-02T22:24:34.422Z,11.00
2023-05-02T22:27:01.579Z,10.53
2023-05-02T22:29:29.142Z,10.67
2023-05-02T22:31:56.013Z,11.67
2023-05-02T22:34:23.118Z,8.07
2023-05-02T22:36:50.002Z,8.57
2023-05-02T22:39:17.280Z,7.47
2023-05-02T22:41:44.411Z,7.83
2023-05-02T22:44:11.454Z,8.67
2023-05-02T22:46:39.079Z,9.27
2023-05-02T22:49:11.449Z,7.63
2023-05-02T22:51:40.161Z,10.30
2023-05-02T22:54:08.021Z,7.37
2023-05-02T22:56:35.034Z,6.80
2023-05-02T22:59:01.800Z,6.93
2023-05-02T23:01:28.846Z,7.53
2023-05-02T23:03:55.852Z,9.63
2023-05-02T23:06:22.939Z,15.63
2023-05-02T23:08:49.695Z,10.60
2023-05-02T23:11:16.777Z,8.10
2023-05-02T23:13:43.579Z,13.43
2023-05-02T23:16:10.762Z,10.43
2023-05-02T23:18:37.542Z,10.87
2023-05-02T23:21:04.730Z,8.77
2023-05-02T23:25:58.627Z,8.77
2023-05-02T23:28:26.182Z,7.93
2023-05-02T23:30:53.680Z,7.90
2023-05-02T23:33:20.774Z,13.70
2023-05-02T23:35:47.881Z,12.60
2023-05-02T23:38:14.856Z,7.20
2023-05-02T23:40:41.978Z,8.70
2023-05-02T23:43:08.958Z,8.43
2023-05-02T23:45:35.996Z,10.00
2023-05-02T23:48:03.147Z,10.93
2023-05-02T23:50:29.912Z,29.53
2023-05-02T23:52:56.692Z,10.47
2023-05-02T23:55:23.402Z,12.30
2023-05-02T23:57:50.159Z,9.00
